AGGM

Munda Airport

Solomon Islands
TAF AGGM 201645Z 2018/2118 VRB03KT 9999 -SHDZ FEW017 SCT028 FM192300 09008KT 9999 SCT018 SCT030 PROB40 INTER 2022/2106 5000 TSSH BKN016 FEW017CB Q 1006 1008 1008 1006
Issued Valid From Valid To
Apr-20 @ 16:45 UTC
(2 hours ago)
Apr-20 @ 18:00 UTC
(40 minutes ago)
Apr-21 @ 18:00 UTC
(in 23 hours)
Apr-20 @ 18:00 to Apr-21 @ 18:00
TAF AGGM 201645Z 2018/2118 VRB03KT 9999 -SHDZ FEW017 SCT028
Wind Visibility Clouds Conditions
Variable at 3 knots 10,000+ meters
  • Few at 1,700' AGL
  • Scattered at 2,800' AGL
  • Light Drizzle
From Apr-19 @ 23:00 to Apr-21 @ 18:00
FM192300 09008KT 9999 SCT018 SCT030
Wind Visibility Clouds
90° at 8 knots 10,000+ meters
  • Scattered at 1,800' AGL
  • Scattered at 3,000' AGL
Temporary  (Probability 40%) Apr-20 @ 22:00 to Apr-21 @ 06:00
PROB40 INTER 2022/2106 5000 TSSH BKN016 FEW017CB Q 1006 1008 1008 1006
Visibility Clouds Conditions
5,005 meters
  • Broken at 1,600' AGL
  • Few at 1,700' AGL
  • Thunderstorm
TAF AGGM 201645Z 2018/2118 VRB03KT 9999 -SHDZ FEW017 SCT028 FM192300 09008KT 9999 SCT018 SCT030 PROB40 INTER 2022/2106 5000 TSSH BKN016 FEW017CB Q 1006 1008 1008 1006
Issued Apr-20 @ 16:45 UTC
(2 hours ago)
Valid From Apr-20 @ 18:00 UTC
(40 minutes ago)
Valid To Apr-21 @ 18:00 UTC
(in 23 hours)
Apr-20 @ 18:00 - Apr-21 @ 18:00
Wind Visibility
Variable at 3 knots 10,000+ meters
Clouds
  • Few at 1,700' AGL
  • Scattered at 2,800' AGL
Conditions
  • Light Drizzle
From Apr-19 @ 23:00 - Apr-21 @ 18:00
Wind Visibility
90° at 8 knots 10,000+ meters
Clouds
  • Scattered at 1,800' AGL
  • Scattered at 3,000' AGL
Probability 40% Temporary Apr-20 @ 22:00 - Apr-21 @ 06:00
Clouds
  • Broken at 1,600' AGL
  • Few at 1,700' AGL
Conditions
  • Thunderstorm